createdAt,value
2023-04-24T00:00:23.607Z,11.00
2023-04-24T00:02:51.621Z,10.97
2023-04-24T00:05:19.131Z,10.93
2023-04-24T00:07:46.284Z,10.90
2023-04-24T00:10:13.406Z,10.88
2023-04-24T00:12:40.671Z,10.93
2023-04-24T00:15:08.974Z,11.09
2023-04-24T00:17:36.666Z,11.09
2023-04-24T00:20:05.638Z,11.03
2023-04-24T00:22:33.339Z,11.00
2023-04-24T00:25:00.562Z,10.85
2023-04-24T00:27:28.970Z,10.74
2023-04-24T00:29:56.093Z,10.72
2023-04-24T00:32:23.342Z,10.64
2023-04-24T00:34:51.200Z,10.51
2023-04-24T00:37:18.304Z,10.55
2023-04-24T00:39:45.790Z,10.64
2023-04-24T00:42:13.300Z,10.69
2023-04-24T00:44:43.182Z,10.63
2023-04-24T00:47:12.277Z,10.52
2023-04-24T00:49:39.463Z,10.48
2023-04-24T00:52:09.792Z,10.53
2023-04-24T00:54:36.996Z,10.48
2023-04-24T00:57:05.361Z,10.54
2023-04-24T00:59:32.702Z,10.53
2023-04-24T01:01:59.976Z,10.54
2023-04-24T01:04:27.683Z,10.64
2023-04-24T01:06:56.917Z,10.67
2023-04-24T01:09:25.289Z,10.59
2023-04-24T01:11:52.386Z,10.48
2023-04-24T01:14:19.947Z,10.69
2023-04-24T01:16:49.793Z,10.70
2023-04-24T01:19:19.863Z,10.67
2023-04-24T01:21:48.497Z,10.69
2023-04-24T01:24:15.985Z,10.82
2023-04-24T01:26:43.114Z,10.74
2023-04-24T01:29:11.471Z,10.67
2023-04-24T01:31:40.633Z,10.82
2023-04-24T01:34:09.091Z,11.00
2023-04-24T01:36:37.273Z,10.89
2023-04-24T01:39:04.789Z,10.86
2023-04-24T01:41:33.842Z,10.79
2023-04-24T01:44:01.235Z,10.77
2023-04-24T01:46:28.419Z,10.84
2023-04-24T01:48:55.888Z,10.96
2023-04-24T01:51:23.072Z,10.98
2023-04-24T01:53:50.533Z,10.97
2023-04-24T01:56:17.836Z,11.05
2023-04-24T01:58:48.968Z,11.13
2023-04-24T02:01:20.007Z,11.08
2023-04-24T02:03:48.724Z,11.04
2023-04-24T02:06:16.055Z,11.14
2023-04-24T02:08:43.296Z,11.12
2023-04-24T02:11:11.105Z,11.02
2023-04-24T02:13:38.324Z,11.06
2023-04-24T02:16:05.576Z,10.98
2023-04-24T02:18:32.805Z,10.97
2023-04-24T02:20:59.970Z,10.89
2023-04-24T02:23:28.184Z,10.79
2023-04-24T02:26:00.172Z,10.73
2023-04-24T02:28:27.375Z,10.92
2023-04-24T02:30:54.556Z,10.86
2023-04-24T02:33:23.285Z,10.95
2023-04-24T02:35:50.962Z,11.00
2023-04-24T02:38:18.106Z,11.12
2023-04-24T02:40:45.324Z,11.24
2023-04-24T02:43:13.354Z,11.16
2023-04-24T02:45:40.772Z,11.23
2023-04-24T02:48:07.998Z,11.25
2023-04-24T02:50:35.192Z,11.21
2023-04-24T02:53:02.369Z,11.26
2023-04-24T02:55:30.165Z,11.14
2023-04-24T02:57:57.369Z,11.14
2023-04-24T03:00:24.792Z,11.02
2023-04-24T03:02:52.227Z,10.98
2023-04-24T03:05:22.706Z,11.02
2023-04-24T03:07:53.783Z,10.94
2023-04-24T03:10:26.634Z,11.18
2023-04-24T03:12:54.380Z,11.09
2023-04-24T03:15:21.554Z,11.12
2023-04-24T03:17:49.157Z,11.08
2023-04-24T03:20:17.056Z,10.97
2023-04-24T03:22:45.055Z,10.97
2023-04-24T03:25:12.819Z,10.94
2023-04-24T03:27:40.533Z,10.94
2023-04-24T03:30:27.969Z,11.01
2023-04-24T03:32:59.413Z,11.08
2023-04-24T03:35:30.294Z,10.95
2023-04-24T03:38:01.289Z,11.01
2023-04-24T03:40:52.320Z,11.00
2023-04-24T03:43:51.953Z,10.79
2023-04-24T03:46:19.302Z,10.77
2023-04-24T03:48:53.248Z,10.82
2023-04-24T03:51:25.112Z,10.75
2023-04-24T03:53:55.920Z,10.77
2023-04-24T03:56:27.098Z,10.81
2023-04-24T03:58:54.290Z,10.76
2023-04-24T04:01:21.868Z,10.73
2023-04-24T04:04:00.575Z,10.80
2023-04-24T04:06:29.596Z,10.81
2023-04-24T04:08:58.717Z,10.75
2023-04-24T04:11:26.586Z,10.77
2023-04-24T04:13:53.679Z,10.88
2023-04-24T04:16:22.609Z,10.76
2023-04-24T04:18:52.998Z,10.83
2023-04-24T04:21:20.874Z,10.73
2023-04-24T04:23:50.365Z,10.70
2023-04-24T04:26:22.229Z,10.70
2023-04-24T04:29:09.653Z,10.63
2023-04-24T04:31:41.045Z,10.58
2023-04-24T04:34:13.688Z,10.51
2023-04-24T04:36:42.429Z,10.52
2023-04-24T04:39:25.277Z,10.54
2023-04-24T04:42:21.797Z,10.54
2023-04-24T04:44:51.817Z,10.54
2023-04-24T04:47:29.655Z,10.57
2023-04-24T04:49:58.138Z,10.68
2023-04-24T04:52:37.549Z,10.66
2023-04-24T04:55:29.781Z,10.72
2023-04-24T04:58:12.078Z,10.73
2023-04-24T05:00:40.168Z,10.79
2023-04-24T05:03:21.393Z,11.03
2023-04-24T05:05:55.809Z,11.12
2023-04-24T05:08:27.419Z,11.24
2023-04-24T05:10:56.408Z,11.35
2023-04-24T05:13:39.226Z,11.61
2023-04-24T05:16:18.842Z,11.72
2023-04-24T05:18:47.899Z,11.89
2023-04-24T05:21:18.962Z,11.93
2023-04-24T05:23:50.623Z,11.98
2023-04-24T05:26:26.643Z,12.02
2023-04-24T05:28:54.645Z,12.16
2023-04-24T05:31:23.149Z,12.11
2023-04-24T05:33:51.517Z,12.16
2023-04-24T05:36:19.176Z,12.28
2023-04-24T05:38:46.583Z,12.15
2023-04-24T05:41:13.761Z,12.17
2023-04-24T05:43:42.224Z,12.09
2023-04-24T05:46:09.741Z,12.20
2023-04-24T05:48:37.577Z,12.48
2023-04-24T05:51:04.997Z,12.55
2023-04-24T05:53:32.710Z,12.80
2023-04-24T05:55:59.973Z,12.97
2023-04-24T05:58:27.946Z,13.10
2023-04-24T06:00:56.634Z,13.14
2023-04-24T06:03:24.059Z,13.26
2023-04-24T06:05:52.397Z,13.30
2023-04-24T06:08:20.035Z,13.35
2023-04-24T06:10:48.697Z,13.48
2023-04-24T06:13:18.003Z,13.29
2023-04-24T06:16:01.047Z,13.16
2023-04-24T06:18:34.670Z,13.35
2023-04-24T06:21:01.940Z,13.37
2023-04-24T06:23:33.432Z,13.46
2023-04-24T06:26:00.854Z,13.05
2023-04-24T06:28:28.349Z,13.37
2023-04-24T06:30:58.675Z,13.89
2023-04-24T06:33:25.813Z,14.38
2023-04-24T06:35:57.128Z,13.88
2023-04-24T06:38:27.613Z,13.16
2023-04-24T06:40:57.291Z,12.83
2023-04-24T06:43:24.480Z,13.22
2023-04-24T06:45:51.646Z,13.21
2023-04-24T06:48:19.215Z,13.37
2023-04-24T06:50:47.786Z,14.11
2023-04-24T06:53:15.428Z,13.76
2023-04-24T06:55:44.192Z,14.13
2023-04-24T06:58:11.993Z,14.62
2023-04-24T07:00:39.336Z,15.28
2023-04-24T07:03:06.906Z,15.77
2023-04-24T07:05:37.204Z,15.74
2023-04-24T07:08:04.464Z,15.44
2023-04-24T07:10:31.759Z,15.56
2023-04-24T07:13:00.024Z,16.12
2023-04-24T07:15:27.518Z,16.19
2023-04-24T07:17:54.724Z,15.25
2023-04-24T07:20:22.060Z,14.71
2023-04-24T07:22:50.155Z,14.08
2023-04-24T07:25:20.578Z,14.03
2023-04-24T07:27:47.998Z,14.03
2023-04-24T07:30:17.876Z,13.93
2023-04-24T07:32:45.017Z,13.87
2023-04-24T07:35:12.201Z,14.51
2023-04-24T07:37:39.676Z,15.26
2023-04-24T07:40:10.047Z,15.55
2023-04-24T07:42:37.451Z,15.76
2023-04-24T07:45:05.168Z,15.42
2023-04-24T07:47:40.599Z,15.28
2023-04-24T07:50:08.353Z,15.53
2023-04-24T07:52:35.941Z,15.61
2023-04-24T07:55:03.550Z,15.32
2023-04-24T07:57:30.769Z,15.46
2023-04-24T07:59:57.907Z,15.42
2023-04-24T08:02:27.633Z,15.73
2023-04-24T08:04:55.786Z,15.68
2023-04-24T08:07:25.180Z,15.59
2023-04-24T08:09:52.434Z,14.96
2023-04-24T08:12:19.610Z,14.70
2023-04-24T08:14:46.809Z,15.11
2023-04-24T08:17:13.992Z,14.97
2023-04-24T08:19:49.155Z,14.80
2023-04-24T08:22:17.282Z,15.23
2023-04-24T08:24:44.933Z,15.43
2023-04-24T08:27:12.092Z,14.84
2023-04-24T08:29:39.346Z,14.77
2023-04-24T08:32:06.635Z,14.08
2023-04-24T08:34:38.832Z,13.69
2023-04-24T08:37:06.166Z,13.61
2023-04-24T08:39:33.399Z,13.86
2023-04-24T08:42:06.259Z,13.87
2023-04-24T08:44:33.620Z,13.91
2023-04-24T08:47:02.987Z,14.24
2023-04-24T08:49:30.935Z,14.05
2023-04-24T08:51:58.377Z,14.18
2023-04-24T08:54:26.257Z,14.00
2023-04-24T08:56:54.706Z,13.88
2023-04-24T08:59:23.596Z,13.96
2023-04-24T09:01:53.498Z,13.99
2023-04-24T09:04:23.290Z,14.38
2023-04-24T09:06:51.898Z,14.68
2023-04-24T09:09:22.464Z,14.91
2023-04-24T09:11:59.526Z,14.92
2023-04-24T09:14:32.446Z,15.20
2023-04-24T09:16:59.881Z,14.77
2023-04-24T09:19:27.253Z,15.44
2023-04-24T09:21:55.160Z,15.55
2023-04-24T09:24:25.900Z,15.20
2023-04-24T09:27:00.160Z,14.89
2023-04-24T09:29:27.491Z,14.32
2023-04-24T09:31:55.310Z,14.10
2023-04-24T09:34:27.217Z,14.08
2023-04-24T09:36:55.194Z,13.99
2023-04-24T09:39:23.669Z,13.99
2023-04-24T09:41:55.064Z,14.41
2023-04-24T09:44:29.440Z,14.97
2023-04-24T09:47:01.025Z,15.12
2023-04-24T09:49:36.766Z,15.36
2023-04-24T09:52:13.001Z,15.65
2023-04-24T09:54:40.525Z,15.25
2023-04-24T09:57:10.890Z,15.31
2023-04-24T09:59:44.504Z,14.98
2023-04-24T10:02:21.285Z,15.41
2023-04-24T10:05:15.153Z,15.38
2023-04-24T10:07:44.512Z,15.27
2023-04-24T10:10:12.520Z,15.39
2023-04-24T10:12:40.396Z,15.36
2023-04-24T10:15:07.932Z,15.90
2023-04-24T10:17:36.090Z,16.28
2023-04-24T10:20:10.781Z,16.26
2023-04-24T10:22:39.649Z,15.80
2023-04-24T10:25:07.755Z,16.38
2023-04-24T10:27:44.086Z,17.06
2023-04-24T10:30:13.740Z,17.51
2023-04-24T10:32:46.655Z,17.70
2023-04-24T10:35:15.948Z,17.45
2023-04-24T10:38:04.597Z,17.52
2023-04-24T10:40:36.528Z,17.34
2023-04-24T10:43:07.382Z,17.50
2023-04-24T10:45:35.006Z,17.38
2023-04-24T10:48:11.772Z,17.56
2023-04-24T10:50:52.339Z,17.02
2023-04-24T10:53:31.499Z,15.92
2023-04-24T10:56:05.492Z,16.25
2023-04-24T10:58:53.621Z,16.64
2023-04-24T11:01:29.851Z,16.14
2023-04-24T11:03:59.470Z,15.14
2023-04-24T11:06:38.013Z,15.43
2023-04-24T11:09:07.304Z,16.21
2023-04-24T11:11:36.126Z,16.21
2023-04-24T11:14:05.718Z,16.11
2023-04-24T11:16:39.511Z,15.49
2023-04-24T11:19:19.351Z,15.22
2023-04-24T11:22:15.333Z,15.20
2023-04-24T11:24:56.024Z,15.34
2023-04-24T11:27:34.909Z,15.24
2023-04-24T11:30:09.854Z,15.06
2023-04-24T11:32:49.307Z,14.96
2023-04-24T11:35:30.231Z,14.73
2023-04-24T11:40:36.204Z,14.40
2023-04-24T11:43:07.694Z,14.71
2023-04-24T11:45:51.830Z,15.43
2023-04-24T11:48:25.014Z,16.00
2023-04-24T11:50:56.164Z,16.08
2023-04-24T11:53:23.301Z,15.72
2023-04-24T11:55:52.396Z,15.09
2023-04-24T11:58:23.763Z,14.82
2023-04-24T12:00:58.683Z,14.48
2023-04-24T12:03:28.273Z,13.95
2023-04-24T12:06:12.683Z,13.88
2023-04-24T12:08:42.732Z,13.85
2023-04-24T12:11:13.715Z,13.73
2023-04-24T12:13:46.197Z,14.21
2023-04-24T12:16:14.501Z,15.26
2023-04-24T12:18:51.679Z,15.80
2023-04-24T12:21:28.111Z,15.93
2023-04-24T12:23:57.080Z,15.06
2023-04-24T12:26:30.543Z,14.78
2023-04-24T12:29:09.098Z,15.35
2023-04-24T12:31:41.235Z,16.23
2023-04-24T12:34:28.147Z,16.20
2023-04-24T12:37:10.709Z,14.80
2023-04-24T12:40:05.763Z,13.98
2023-04-24T12:42:47.230Z,13.96
2023-04-24T12:45:26.249Z,14.17
2023-04-24T12:47:53.431Z,14.14
2023-04-24T12:50:23.697Z,14.12
2023-04-24T12:53:00.291Z,14.35
2023-04-24T12:55:29.479Z,14.90
2023-04-24T12:58:03.011Z,15.67
2023-04-24T13:00:31.264Z,15.66
2023-04-24T13:03:01.980Z,15.94
2023-04-24T13:05:31.057Z,16.62
2023-04-24T13:08:02.478Z,17.41
2023-04-24T13:10:30.002Z,17.47
2023-04-24T13:13:00.727Z,17.47
2023-04-24T13:15:28.039Z,16.20
2023-04-24T13:17:55.421Z,15.63
2023-04-24T13:20:27.669Z,16.63
2023-04-24T13:22:54.819Z,16.75
2023-04-24T13:25:24.600Z,16.60
2023-04-24T13:27:52.118Z,16.58
2023-04-24T13:30:25.088Z,16.12
2023-04-24T13:35:37.018Z,15.54
2023-04-24T13:38:13.363Z,14.95
2023-04-24T13:40:40.589Z,15.26
2023-04-24T13:43:07.668Z,16.18
2023-04-24T13:45:37.774Z,16.39
2023-04-24T13:48:09.874Z,16.05
2023-04-24T13:50:40.273Z,15.47
2023-04-24T13:53:07.464Z,15.15
2023-04-24T13:55:42.116Z,15.36
2023-04-24T13:58:14.033Z,16.04
2023-04-24T14:00:41.715Z,15.88
2023-04-24T14:03:11.496Z,15.82
2023-04-24T14:05:43.231Z,15.38
2023-04-24T14:08:11.371Z,15.44
2023-04-24T14:10:44.756Z,15.20
2023-04-24T14:13:17.460Z,14.75
2023-04-24T14:15:47.872Z,14.70
2023-04-24T14:18:20.405Z,14.44
2023-04-24T14:20:50.269Z,14.88
2023-04-24T14:23:21.214Z,15.12
2023-04-24T14:25:51.999Z,15.20
2023-04-24T14:28:21.160Z,15.61
2023-04-24T14:30:57.252Z,15.23
2023-04-24T14:33:25.365Z,15.14
2023-04-24T14:35:53.318Z,15.93
2023-04-24T14:38:24.590Z,16.50
2023-04-24T14:41:21.827Z,16.23
2023-04-24T14:43:49.374Z,16.00
2023-04-24T14:46:16.792Z,15.66
2023-04-24T14:48:44.093Z,15.55
2023-04-24T14:51:14.219Z,15.56
2023-04-24T14:53:47.626Z,15.35
2023-04-24T14:56:16.343Z,15.42
2023-04-24T14:58:52.416Z,15.64
2023-04-24T15:01:22.728Z,15.45
2023-04-24T15:03:50.365Z,15.24
2023-04-24T15:06:20.367Z,15.13
2023-04-24T15:08:49.946Z,15.55
2023-04-24T15:11:18.200Z,15.72
2023-04-24T15:13:46.740Z,15.82
2023-04-24T15:16:15.170Z,15.31
2023-04-24T15:18:42.767Z,14.89
2023-04-24T15:21:10.065Z,14.48
2023-04-24T15:23:37.829Z,14.12
2023-04-24T15:26:05.043Z,13.58
2023-04-24T15:28:32.024Z,13.35
2023-04-24T15:30:59.512Z,13.43
2023-04-24T15:33:26.988Z,13.48
2023-04-24T15:36:02.716Z,13.36
2023-04-24T15:38:31.962Z,13.09
2023-04-24T15:41:02.766Z,13.11
2023-04-24T15:43:32.099Z,13.22
2023-04-24T15:46:00.105Z,13.24
2023-04-24T15:48:30.074Z,13.17
2023-04-24T15:50:59.304Z,13.09
2023-04-24T15:53:27.162Z,13.13
2023-04-24T15:55:54.975Z,13.11
2023-04-24T15:58:25.455Z,13.05
2023-04-24T16:00:58.172Z,12.98
2023-04-24T16:03:25.757Z,13.05
2023-04-24T16:05:57.729Z,13.18
2023-04-24T16:08:24.967Z,13.11
2023-04-24T16:10:54.878Z,13.05
2023-04-24T16:13:23.072Z,13.03
2023-04-24T16:15:53.699Z,12.94
2023-04-24T16:18:21.036Z,12.93
2023-04-24T16:20:49.463Z,12.92
2023-04-24T16:23:18.298Z,12.93
2023-04-24T16:25:47.832Z,12.83
2023-04-24T16:28:15.204Z,12.81
2023-04-24T16:30:45.471Z,12.85
2023-04-24T16:33:12.754Z,12.84
2023-04-24T16:35:45.165Z,12.76
2023-04-24T16:38:12.456Z,12.72
2023-04-24T16:40:48.578Z,12.60
2023-04-24T16:43:15.830Z,12.65
2023-04-24T16:45:43.392Z,12.50
2023-04-24T16:48:14.511Z,12.44
2023-04-24T16:50:48.535Z,12.42
2023-04-24T16:53:15.833Z,12.40
2023-04-24T16:55:44.524Z,12.42
2023-04-24T16:58:11.714Z,12.19
2023-04-24T17:00:41.767Z,12.02
2023-04-24T17:03:12.290Z,11.99
2023-04-24T17:05:40.053Z,11.91
2023-04-24T17:08:07.406Z,11.89
2023-04-24T17:10:34.526Z,11.85
2023-04-24T17:13:02.019Z,11.83
2023-04-24T17:15:32.610Z,11.84
2023-04-24T17:18:00.202Z,11.67
2023-04-24T17:20:29.824Z,11.51
2023-04-24T17:22:57.475Z,11.62
2023-04-24T17:25:27.260Z,11.69
2023-04-24T17:27:57.336Z,11.43
2023-04-24T17:30:33.161Z,11.19
2023-04-24T17:33:00.424Z,11.10
2023-04-24T17:35:30.574Z,11.03
2023-04-24T17:37:57.858Z,11.08
2023-04-24T17:40:26.076Z,11.19
2023-04-24T17:42:58.848Z,11.15
2023-04-24T17:45:26.095Z,11.13
2023-04-24T17:47:53.277Z,11.10
2023-04-24T17:50:23.398Z,11.07
2023-04-24T17:52:56.154Z,10.89
2023-04-24T17:55:24.215Z,10.70
2023-04-24T17:57:51.554Z,10.52
2023-04-24T18:00:21.916Z,10.23
2023-04-24T18:02:51.136Z,10.15
2023-04-24T18:05:18.747Z,10.07
2023-04-24T18:07:45.846Z,9.94
2023-04-24T18:10:13.023Z,9.88
2023-04-24T18:12:44.364Z,9.74
2023-04-24T18:15:21.303Z,9.64
2023-04-24T18:17:48.593Z,9.55
2023-04-24T18:20:22.680Z,9.44
2023-04-24T18:22:56.263Z,9.39
2023-04-24T18:25:27.010Z,9.39
2023-04-24T18:28:00.506Z,9.30
2023-04-24T18:30:37.299Z,9.27
2023-04-24T18:33:04.655Z,9.28
2023-04-24T18:35:32.164Z,9.15
2023-04-24T18:37:59.401Z,9.13
2023-04-24T18:40:37.817Z,8.99
2023-04-24T18:43:04.950Z,8.95
2023-04-24T18:45:32.142Z,8.95
2023-04-24T18:47:59.414Z,8.93
2023-04-24T18:50:31.681Z,8.89
2023-04-24T18:53:01.088Z,8.83
2023-04-24T18:55:28.854Z,8.83
2023-04-24T18:57:59.160Z,8.85
2023-04-24T19:00:26.322Z,8.83
2023-04-24T19:02:58.650Z,8.82
2023-04-24T19:05:26.021Z,8.81
2023-04-24T19:08:03.712Z,8.77
2023-04-24T19:10:31.077Z,8.76
2023-04-24T19:12:58.208Z,8.65
2023-04-24T19:15:25.649Z,8.62
2023-04-24T19:17:53.051Z,8.63
2023-04-24T19:20:24.822Z,8.62
2023-04-24T19:22:52.223Z,8.61
2023-04-24T19:25:28.451Z,8.61
2023-04-24T19:27:56.116Z,8.49
2023-04-24T19:30:23.271Z,8.42
2023-04-24T19:32:50.413Z,8.39
2023-04-24T19:35:21.960Z,8.41
2023-04-24T19:37:49.181Z,8.36
2023-04-24T19:40:16.376Z,8.26
2023-04-24T19:42:44.743Z,8.27
2023-04-24T19:45:13.927Z,8.23
2023-04-24T19:47:41.364Z,8.16
2023-04-24T19:50:09.673Z,8.10
2023-04-24T19:52:36.927Z,8.09
2023-04-24T19:55:04.871Z,8.09
2023-04-24T19:57:34.969Z,8.10
2023-04-24T20:00:02.045Z,8.11
2023-04-24T20:02:32.275Z,8.12
2023-04-24T20:04:59.736Z,8.11
2023-04-24T20:07:27.460Z,8.17
2023-04-24T20:09:54.755Z,8.21
2023-04-24T20:12:43.739Z,8.16
2023-04-24T20:15:11.365Z,8.19
2023-04-24T20:17:38.616Z,8.19
2023-04-24T20:20:06.676Z,8.12
2023-04-24T20:22:38.810Z,8.05
2023-04-24T20:25:08.170Z,7.95
2023-04-24T20:27:35.686Z,7.86
2023-04-24T20:30:04.897Z,7.90
2023-04-24T20:32:32.210Z,7.83
2023-04-24T20:34:59.444Z,7.81
2023-04-24T20:37:26.742Z,7.77
2023-04-24T20:39:53.879Z,7.65
2023-04-24T20:42:20.979Z,7.63
2023-04-24T20:44:48.805Z,7.59
2023-04-24T20:47:15.884Z,7.57
2023-04-24T20:49:43.365Z,7.61
2023-04-24T20:52:10.733Z,7.76
2023-04-24T20:54:37.852Z,7.78
2023-04-24T20:57:06.152Z,7.78
2023-04-24T20:59:33.286Z,7.79
2023-04-24T21:02:00.480Z,7.77
2023-04-24T21:04:27.764Z,7.66
2023-04-24T21:06:55.061Z,7.65
2023-04-24T21:09:22.181Z,7.64
2023-04-24T21:11:49.296Z,7.60
2023-04-24T21:14:16.377Z,7.57
2023-04-24T21:16:43.572Z,7.56
2023-04-24T21:19:10.823Z,7.56
2023-04-24T21:21:37.973Z,7.50
2023-04-24T21:24:05.372Z,7.45
2023-04-24T21:26:32.518Z,7.40
2023-04-24T21:28:59.672Z,7.36
2023-04-24T21:31:26.928Z,7.30
2023-04-24T21:33:54.048Z,7.22
2023-04-24T21:36:21.152Z,7.26
2023-04-24T21:38:48.277Z,7.19
2023-04-24T21:41:15.377Z,7.16
2023-04-24T21:43:50.395Z,7.19
2023-04-24T21:46:17.846Z,7.15
2023-04-24T21:48:44.976Z,7.15
2023-04-24T21:51:12.212Z,7.09
2023-04-24T21:53:39.432Z,7.13
2023-04-24T21:56:06.741Z,7.13
2023-04-24T21:58:35.205Z,7.13
2023-04-24T22:01:02.518Z,7.13
2023-04-24T22:03:30.378Z,7.12
2023-04-24T22:05:57.499Z,7.14
2023-04-24T22:08:26.189Z,7.09
2023-04-24T22:10:54.420Z,7.04
2023-04-24T22:13:21.866Z,6.97
2023-04-24T22:15:50.867Z,6.88
2023-04-24T22:18:18.801Z,6.71
2023-04-24T22:20:46.595Z,6.60
2023-04-24T22:23:13.518Z,6.53
2023-04-24T22:25:40.589Z,6.62
2023-04-24T22:28:07.856Z,6.52
2023-04-24T22:30:34.950Z,6.55
2023-04-24T22:33:02.105Z,6.41
2023-04-24T22:35:29.387Z,6.42
2023-04-24T22:37:57.191Z,6.46
2023-04-24T22:40:25.257Z,6.49
2023-04-24T22:42:52.900Z,6.48
2023-04-24T22:45:23.578Z,6.43
2023-04-24T22:47:51.325Z,6.40
2023-04-24T22:50:20.616Z,6.43
2023-04-24T22:52:47.960Z,6.33
2023-04-24T22:55:15.654Z,6.27
2023-04-24T22:57:42.793Z,6.17
2023-04-24T23:00:12.573Z,6.10
2023-04-24T23:02:40.861Z,6.01
2023-04-24T23:05:09.664Z,6.03
2023-04-24T23:07:38.363Z,6.14
2023-04-24T23:10:06.720Z,6.29
2023-04-24T23:12:33.917Z,6.30
2023-04-24T23:15:01.415Z,6.34
2023-04-24T23:17:28.520Z,6.39
2023-04-24T23:19:55.697Z,6.44
2023-04-24T23:22:23.156Z,6.42
2023-04-24T23:24:50.624Z,6.49
2023-04-24T23:27:17.737Z,6.46
2023-04-24T23:29:44.900Z,6.52
2023-04-24T23:32:12.034Z,6.53
2023-04-24T23:34:39.586Z,6.55
2023-04-24T23:37:07.035Z,6.57
2023-04-24T23:39:34.191Z,6.60
2023-04-24T23:42:02.884Z,6.58
2023-04-24T23:44:30.497Z,6.54
2023-04-24T23:46:57.583Z,6.42
2023-04-24T23:49:24.743Z,6.40
2023-04-24T23:51:52.348Z,6.35
2023-04-24T23:54:19.677Z,6.46
2023-04-24T23:56:48.244Z,6.47
2023-04-24T23:59:15.460Z,6.50
